createdAt,value
2023-03-12T00:00:55.947Z,2.17
2023-03-12T00:03:43.319Z,2.90
2023-03-12T00:06:30.531Z,1.90
2023-03-12T00:09:17.521Z,2.37
2023-03-12T00:12:05.364Z,2.00
2023-03-12T00:14:52.376Z,2.40
2023-03-12T00:17:39.345Z,3.00
2023-03-12T00:20:26.314Z,2.90
2023-03-12T00:23:13.271Z,2.60
2023-03-12T00:26:02.498Z,2.10
2023-03-12T00:28:50.165Z,2.30
2023-03-12T00:31:37.169Z,2.50
2023-03-12T00:34:24.092Z,2.00
2023-03-12T00:37:10.986Z,2.20
2023-03-12T00:39:57.943Z,2.30
2023-03-12T00:42:44.892Z,2.30
2023-03-12T00:45:31.814Z,2.57
2023-03-12T00:48:18.764Z,2.63
2023-03-12T00:51:06.326Z,2.90
2023-03-12T00:53:53.325Z,2.73
2023-03-12T00:56:40.283Z,2.63
2023-03-12T00:59:27.299Z,3.27
2023-03-12T01:02:14.267Z,3.17
2023-03-12T01:05:01.204Z,3.30
2023-03-12T01:07:48.166Z,3.60
2023-03-12T01:10:36.514Z,3.20
2023-03-12T01:13:23.636Z,2.47
2023-03-12T01:16:10.726Z,2.40
2023-03-12T01:18:59.840Z,2.50
2023-03-12T01:21:46.856Z,3.03
2023-03-12T01:24:33.781Z,3.50
2023-03-12T01:27:20.758Z,3.17
2023-03-12T01:30:08.426Z,2.93
2023-03-12T01:32:55.417Z,2.97
2023-03-12T01:35:43.023Z,2.50
2023-03-12T01:38:29.994Z,2.27
2023-03-12T01:41:17.188Z,3.03
2023-03-12T01:44:05.686Z,2.63
2023-03-12T01:46:52.992Z,2.73
2023-03-12T01:49:45.222Z,3.10
2023-03-12T01:52:35.115Z,3.00
2023-03-12T01:55:22.247Z,2.70
2023-03-12T01:58:09.611Z,2.63
2023-03-12T02:00:56.851Z,3.07
2023-03-12T02:03:46.555Z,2.60
2023-03-12T02:06:43.931Z,3.00
2023-03-12T02:09:36.975Z,2.50
2023-03-12T02:12:23.939Z,2.40
2023-03-12T02:15:11.515Z,2.50
2023-03-12T02:17:58.852Z,3.00
2023-03-12T02:20:59.024Z,2.40
2023-03-12T02:24:14.658Z,2.90
2023-03-12T02:27:03.053Z,2.47
2023-03-12T02:29:50.717Z,2.20
2023-03-12T02:32:39.798Z,2.43
2023-03-12T02:35:27.208Z,2.40
2023-03-12T02:38:45.699Z,2.03
2023-03-12T02:41:37.841Z,2.60
2023-03-12T02:44:33.538Z,2.87
2023-03-12T02:47:20.943Z,2.30
2023-03-12T02:50:08.553Z,2.80
2023-03-12T02:52:55.638Z,3.07
2023-03-12T02:55:42.578Z,3.00
2023-03-12T02:58:29.546Z,2.53
2023-03-12T03:01:17.993Z,2.60
2023-03-12T03:04:06.797Z,2.73
2023-03-12T03:06:54.025Z,2.43
2023-03-12T03:09:41.065Z,2.80
2023-03-12T03:12:28.308Z,2.93
2023-03-12T03:15:15.421Z,2.83
2023-03-12T03:18:03.929Z,2.80
2023-03-12T03:20:58.638Z,2.77
2023-03-12T03:23:47.422Z,3.00
2023-03-12T03:26:34.702Z,2.90
2023-03-12T03:29:21.787Z,2.90
2023-03-12T03:32:08.829Z,3.17
2023-03-12T03:34:55.822Z,3.13
2023-03-12T03:37:42.895Z,2.93
2023-03-12T03:40:30.513Z,2.80
2023-03-12T03:43:17.498Z,3.27
2023-03-12T03:46:06.185Z,3.10
2023-03-12T03:48:57.440Z,2.90
2023-03-12T03:51:44.638Z,2.90
2023-03-12T03:54:34.730Z,3.10
2023-03-12T03:57:22.682Z,2.90
2023-03-12T04:00:13.083Z,3.07
2023-03-12T04:03:04.431Z,3.10
2023-03-12T04:06:00.595Z,2.67
2023-03-12T04:08:48.048Z,3.20
2023-03-12T04:11:38.103Z,3.10
2023-03-12T04:14:26.878Z,3.00
2023-03-12T04:17:13.978Z,3.33
2023-03-12T04:20:01.586Z,3.13
2023-03-12T04:22:49.426Z,3.10
2023-03-12T04:25:38.482Z,2.80
2023-03-12T04:28:25.638Z,2.77
2023-03-12T04:31:13.089Z,2.80
2023-03-12T04:34:04.917Z,2.83
2023-03-12T04:36:51.918Z,2.93
2023-03-12T04:39:39.258Z,2.50
2023-03-12T04:42:26.339Z,3.23
2023-03-12T04:45:13.860Z,2.80
2023-03-12T04:48:05.837Z,2.90
2023-03-12T04:50:53.119Z,3.03
2023-03-12T04:53:40.848Z,3.30
2023-03-12T04:56:30.141Z,3.30
2023-03-12T04:59:18.638Z,3.13
2023-03-12T05:02:06.746Z,3.37
2023-03-12T05:04:56.624Z,3.10
2023-03-12T05:07:44.047Z,3.20
2023-03-12T05:10:32.479Z,3.07
2023-03-12T05:13:22.473Z,3.23
2023-03-12T05:16:12.628Z,2.90
2023-03-12T05:19:02.261Z,3.60
2023-03-12T05:21:50.473Z,3.23
2023-03-12T05:24:37.590Z,3.13
2023-03-12T05:27:26.117Z,2.97
2023-03-12T05:30:14.733Z,3.00
2023-03-12T05:33:01.922Z,3.20
2023-03-12T05:35:49.809Z,2.70
2023-03-12T05:38:38.172Z,3.13
2023-03-12T05:41:28.810Z,2.97
2023-03-12T05:44:20.401Z,2.90
2023-03-12T05:47:11.790Z,3.13
2023-03-12T05:50:01.131Z,3.37
2023-03-12T05:52:48.215Z,3.60
2023-03-12T05:55:39.549Z,4.07
2023-03-12T05:58:26.658Z,4.50
2023-03-12T06:01:20.081Z,4.93
2023-03-12T06:04:07.138Z,3.53
2023-03-12T06:06:54.244Z,3.70
2023-03-12T06:09:42.865Z,3.37
2023-03-12T06:12:30.898Z,3.13
2023-03-12T06:15:17.959Z,3.30
2023-03-12T06:18:05.205Z,3.10
2023-03-12T06:20:52.880Z,2.73
2023-03-12T06:23:40.131Z,3.17
2023-03-12T06:26:28.710Z,3.10
2023-03-12T06:29:15.660Z,3.20
2023-03-12T06:32:02.906Z,3.37
2023-03-12T06:34:50.051Z,3.17
2023-03-12T06:37:37.108Z,3.20
2023-03-12T06:40:24.026Z,3.13
2023-03-12T06:43:12.254Z,3.33
2023-03-12T06:46:01.003Z,3.77
2023-03-12T06:48:48.104Z,3.80
2023-03-12T06:51:35.077Z,3.53
2023-03-12T06:54:21.987Z,3.47
2023-03-12T06:57:09.031Z,3.57
2023-03-12T06:59:55.990Z,3.60
2023-03-12T07:02:42.905Z,4.07
2023-03-12T07:05:30.254Z,4.30
2023-03-12T07:08:18.650Z,3.30
2023-03-12T07:11:05.653Z,3.80
2023-03-12T07:13:52.652Z,3.37
2023-03-12T07:16:39.593Z,3.27
2023-03-12T07:19:26.517Z,3.23
2023-03-12T07:22:13.533Z,3.67
2023-03-12T07:25:00.439Z,3.77
2023-03-12T07:27:47.401Z,4.40
2023-03-12T07:30:34.941Z,4.17
2023-03-12T07:33:22.297Z,3.20
2023-03-12T07:36:09.554Z,3.07
2023-03-12T07:38:56.587Z,3.60
2023-03-12T07:41:43.518Z,3.57
2023-03-12T07:44:30.868Z,3.30
2023-03-12T07:47:24.058Z,2.70
2023-03-12T07:50:12.167Z,3.30
2023-03-12T07:52:59.164Z,3.20
2023-03-12T07:55:46.905Z,2.80
2023-03-12T07:58:36.271Z,2.73
2023-03-12T08:01:25.362Z,2.63
2023-03-12T08:04:12.460Z,2.23
2023-03-12T08:06:59.857Z,2.30
2023-03-12T08:09:49.433Z,2.50
2023-03-12T08:12:37.553Z,2.00
2023-03-12T08:15:24.514Z,1.70
2023-03-12T08:18:11.474Z,1.53
2023-03-12T08:20:58.456Z,1.60
2023-03-12T08:23:45.368Z,1.60
2023-03-12T08:26:32.495Z,1.73
2023-03-12T08:29:20.216Z,1.47
2023-03-12T08:32:08.854Z,1.60
2023-03-12T08:34:55.787Z,1.50
2023-03-12T08:37:42.724Z,2.10
2023-03-12T08:40:29.653Z,2.10
2023-03-12T08:43:16.546Z,2.23
2023-03-12T08:46:03.933Z,2.80
2023-03-12T08:48:50.970Z,2.47
2023-03-12T08:51:37.875Z,2.77
2023-03-12T08:54:24.830Z,2.80
2023-03-12T08:57:11.760Z,3.00
2023-03-12T08:59:58.980Z,3.23
2023-03-12T09:02:47.029Z,2.70
2023-03-12T09:05:34.034Z,2.60
2023-03-12T09:08:20.950Z,2.30
2023-03-12T09:11:12.374Z,2.30
2023-03-12T09:14:33.801Z,2.07
2023-03-12T09:17:07.150Z,2.30
2023-03-12T09:19:54.075Z,2.10
2023-03-12T09:22:41.629Z,1.90
2023-03-12T09:25:28.558Z,1.87
2023-03-12T09:28:16.698Z,1.83
2023-03-12T09:31:04.987Z,2.43
2023-03-12T09:33:52.553Z,1.43
2023-03-12T09:36:39.503Z,1.70
2023-03-12T09:39:26.445Z,1.67
2023-03-12T09:42:25.028Z,1.80
2023-03-12T09:45:41.784Z,1.80
2023-03-12T09:48:34.728Z,1.50
2023-03-12T09:51:33.729Z,1.40
2023-03-12T09:54:32.311Z,1.43
2023-03-12T09:57:25.575Z,1.53
2023-03-12T10:00:16.272Z,1.77
2023-03-12T10:03:09.191Z,2.20
2023-03-12T10:06:11.526Z,1.97
2023-03-12T10:09:19.625Z,1.80
2023-03-12T10:12:25.273Z,2.43
2023-03-12T10:15:42.263Z,2.53
2023-03-12T10:18:55.931Z,2.37
2023-03-12T10:22:08.242Z,2.60
2023-03-12T10:25:15.453Z,2.80
2023-03-12T10:28:17.309Z,2.53
2023-03-12T10:31:16.566Z,3.13
2023-03-12T10:34:15.302Z,3.10
2023-03-12T10:37:12.860Z,3.30
2023-03-12T10:40:02.080Z,3.40
2023-03-12T10:42:49.485Z,3.20
2023-03-12T10:46:01.051Z,3.10
2023-03-12T10:48:47.987Z,3.90
2023-03-12T10:51:54.776Z,3.60
2023-03-12T10:54:44.737Z,3.30
2023-03-12T10:57:40.781Z,3.10
2023-03-12T11:00:32.553Z,3.37
2023-03-12T11:03:21.563Z,3.70
2023-03-12T11:06:15.784Z,3.63
2023-03-12T11:09:16.733Z,3.80
2023-03-12T11:12:24.256Z,4.40
2023-03-12T11:15:25.395Z,4.03
2023-03-12T11:18:32.115Z,3.90
2023-03-12T11:21:20.030Z,3.90
2023-03-12T11:24:08.835Z,3.80
2023-03-12T11:27:19.648Z,4.03
2023-03-12T11:30:11.032Z,3.83
2023-03-12T11:32:58.268Z,4.57
2023-03-12T11:35:56.664Z,4.27
2023-03-12T11:39:02.138Z,4.50
2023-03-12T11:42:12.968Z,4.60
2023-03-12T11:45:21.510Z,4.23
2023-03-12T11:48:08.445Z,4.63
2023-03-12T11:51:30.768Z,5.00
2023-03-12T11:54:35.891Z,4.67
2023-03-12T11:57:31.856Z,5.20
2023-03-12T12:00:25.499Z,5.40
2023-03-12T12:03:44.763Z,4.93
2023-03-12T12:06:47.632Z,5.10
2023-03-12T12:09:40.957Z,5.43
2023-03-12T12:12:27.814Z,5.00
2023-03-12T12:15:17.753Z,5.20
2023-03-12T12:18:43.676Z,5.33
2023-03-12T12:22:00.201Z,5.37
2023-03-12T12:24:56.355Z,5.20
2023-03-12T12:28:07.607Z,5.70
2023-03-12T12:31:25.751Z,6.10
2023-03-12T12:34:15.623Z,5.40
2023-03-12T12:37:19.084Z,5.67
2023-03-12T12:40:52.330Z,5.23
2023-03-12T12:43:47.697Z,5.10
2023-03-12T12:46:38.556Z,5.10
2023-03-12T12:49:47.403Z,5.70
2023-03-12T12:52:34.715Z,4.87
2023-03-12T12:56:03.286Z,4.57
2023-03-12T12:59:03.482Z,4.70
2023-03-12T13:01:52.783Z,5.00
2023-03-12T13:04:40.478Z,5.00
2023-03-12T13:07:28.082Z,4.73
2023-03-12T13:10:33.254Z,4.40
2023-03-12T13:13:23.734Z,4.83
2023-03-12T13:16:38.636Z,4.60
2023-03-12T13:19:27.171Z,4.33
2023-03-12T13:22:35.622Z,4.50
2023-03-12T13:25:49.989Z,4.93
2023-03-12T13:28:56.879Z,4.47
2023-03-12T13:31:49.869Z,4.17
2023-03-12T13:34:46.461Z,4.57
2023-03-12T13:37:51.830Z,4.67
2023-03-12T13:40:49.552Z,4.67
2023-03-12T13:43:39.156Z,4.40
2023-03-12T13:46:40.569Z,4.83
2023-03-12T13:49:40.525Z,4.90
2023-03-12T13:52:32.435Z,4.20
2023-03-12T13:55:27.490Z,4.20
2023-03-12T13:58:16.851Z,4.30
2023-03-12T14:01:06.711Z,4.17
2023-03-12T14:03:58.849Z,4.07
2023-03-12T14:07:04.424Z,3.97
2023-03-12T14:09:57.555Z,3.50
2023-03-12T14:12:57.061Z,3.20
2023-03-12T14:16:10.511Z,3.30
2023-03-12T14:18:58.033Z,3.47
2023-03-12T14:21:48.670Z,3.33
2023-03-12T14:24:41.024Z,3.70
2023-03-12T14:27:32.560Z,3.33
2023-03-12T14:31:03.036Z,3.63
2023-03-12T14:34:12.762Z,3.53
2023-03-12T14:37:18.166Z,3.77
2023-03-12T14:40:22.186Z,2.80
2023-03-12T14:43:32.204Z,2.57
2023-03-12T14:46:22.385Z,2.70
2023-03-12T14:49:19.331Z,2.80
2023-03-12T14:52:07.305Z,2.63
2023-03-12T14:55:00.705Z,2.60
2023-03-12T14:57:48.013Z,2.87
2023-03-12T15:00:35.291Z,2.33
2023-03-12T15:03:22.572Z,2.57
2023-03-12T15:06:22.909Z,2.63
2023-03-12T15:09:19.655Z,2.57
2023-03-12T15:12:22.446Z,2.63
2023-03-12T15:15:17.192Z,2.40
2023-03-12T15:18:13.138Z,2.60
2023-03-12T15:21:03.045Z,3.07
2023-03-12T15:23:50.468Z,2.37
2023-03-12T15:26:38.176Z,2.60
2023-03-12T15:29:28.238Z,2.90
2023-03-12T15:32:20.447Z,2.73
2023-03-12T15:35:13.461Z,2.40
2023-03-12T15:38:02.131Z,3.00
2023-03-12T15:40:51.740Z,2.73
2023-03-12T15:43:38.794Z,2.77
2023-03-12T15:46:27.468Z,2.40
2023-03-12T15:49:23.563Z,2.27
2023-03-12T15:52:19.501Z,2.47
2023-03-12T15:55:09.896Z,2.43
2023-03-12T15:57:58.597Z,2.47
2023-03-12T16:00:45.914Z,2.27
2023-03-12T16:03:32.989Z,2.20
2023-03-12T16:06:25.923Z,2.70
2023-03-12T16:09:18.140Z,2.30
2023-03-12T16:12:05.227Z,2.50
2023-03-12T16:14:55.464Z,2.40
2023-03-12T16:17:43.153Z,2.63
2023-03-12T16:20:30.576Z,2.63
2023-03-12T16:23:19.260Z,2.30
2023-03-12T16:26:06.815Z,2.50
2023-03-12T16:28:53.740Z,2.53
2023-03-12T16:31:40.677Z,2.73
2023-03-12T16:34:28.513Z,2.90
2023-03-12T16:37:15.472Z,2.93
2023-03-12T16:40:02.423Z,2.80
2023-03-12T16:42:51.650Z,3.03
2023-03-12T16:45:44.151Z,3.10
2023-03-12T16:48:31.095Z,2.80
2023-03-12T16:51:18.106Z,2.70
2023-03-12T16:54:11.534Z,3.17
2023-03-12T16:56:59.221Z,2.77
2023-03-12T16:59:46.243Z,3.03
2023-03-12T17:02:34.377Z,2.93
2023-03-12T17:05:21.440Z,3.00
2023-03-12T17:08:08.385Z,3.10
2023-03-12T17:10:56.719Z,3.00
2023-03-12T17:13:45.660Z,2.93
2023-03-12T17:16:32.750Z,3.00
2023-03-12T17:19:19.831Z,2.80
2023-03-12T17:22:06.892Z,2.93
2023-03-12T17:24:54.124Z,3.07
2023-03-12T17:27:41.176Z,3.23
2023-03-12T17:30:30.588Z,3.20
2023-03-12T17:33:18.793Z,3.00
2023-03-12T17:36:08.058Z,2.97
2023-03-12T17:38:55.849Z,3.37
2023-03-12T17:41:42.761Z,3.30
2023-03-12T17:44:34.732Z,3.80
2023-03-12T17:47:21.680Z,3.30
2023-03-12T17:50:09.746Z,3.80
2023-03-12T17:52:56.678Z,4.10
2023-03-12T17:55:43.600Z,4.30
2023-03-12T17:58:30.571Z,4.63
2023-03-12T18:01:17.700Z,4.67
2023-03-12T18:04:04.786Z,4.40
2023-03-12T18:06:51.806Z,4.73
2023-03-12T18:09:38.788Z,4.30
2023-03-12T18:12:25.958Z,4.13
2023-03-12T18:15:13.866Z,4.30
2023-03-12T18:18:01.084Z,5.03
2023-03-12T18:20:48.654Z,5.30
2023-03-12T18:23:35.646Z,5.90
2023-03-12T18:26:22.609Z,5.50
2023-03-12T18:29:09.625Z,4.90
2023-03-12T18:31:56.683Z,4.73
2023-03-12T18:34:43.682Z,4.90
2023-03-12T18:37:30.635Z,5.03
2023-03-12T18:40:17.834Z,4.60
2023-03-12T18:43:04.849Z,4.57
2023-03-12T18:45:51.763Z,4.30
2023-03-12T18:48:38.931Z,4.77
2023-03-12T18:51:25.877Z,4.70
2023-03-12T18:54:12.917Z,4.50
2023-03-12T18:57:00.279Z,4.53
2023-03-12T18:59:47.306Z,4.50
2023-03-12T19:02:34.318Z,4.30
2023-03-12T19:05:21.322Z,3.90
2023-03-12T19:08:08.828Z,4.20
2023-03-12T19:10:55.917Z,4.50
2023-03-12T19:13:42.908Z,3.90
2023-03-12T19:16:31.071Z,4.03
2023-03-12T19:19:18.183Z,4.17
2023-03-12T19:22:05.103Z,4.07
2023-03-12T19:24:52.109Z,4.00
2023-03-12T19:27:39.076Z,4.03
2023-03-12T19:30:30.419Z,4.10
2023-03-12T19:33:17.396Z,3.97
2023-03-12T19:36:04.679Z,3.90
2023-03-12T19:38:51.632Z,4.10
2023-03-12T19:41:40.636Z,3.40
2023-03-12T19:44:27.681Z,3.77
2023-03-12T19:47:18.274Z,3.97
2023-03-12T19:50:06.469Z,3.67
2023-03-12T19:52:53.512Z,3.40
2023-03-12T19:55:40.492Z,3.30
2023-03-12T19:58:28.144Z,3.37
2023-03-12T20:01:15.122Z,3.10
2023-03-12T20:04:04.552Z,2.90
2023-03-12T20:06:51.496Z,2.50
2023-03-12T20:09:38.765Z,2.50
2023-03-12T20:12:26.029Z,2.40
2023-03-12T20:15:13.000Z,2.57
2023-03-12T20:18:00.380Z,2.43
2023-03-12T20:20:47.462Z,2.53
2023-03-12T20:23:34.688Z,2.60
2023-03-12T20:26:21.660Z,2.40
2023-03-12T20:29:08.692Z,2.37
2023-03-12T20:31:55.745Z,2.13
2023-03-12T20:34:42.853Z,2.40
2023-03-12T20:37:29.815Z,2.57
2023-03-12T20:40:16.991Z,2.47
2023-03-12T20:43:05.011Z,2.03
2023-03-12T20:45:52.186Z,2.23
2023-03-12T20:48:39.166Z,2.60
2023-03-12T20:51:26.295Z,2.10
2023-03-12T20:54:13.283Z,2.00
2023-03-12T20:57:00.259Z,2.10
2023-03-12T20:59:47.199Z,2.33
2023-03-12T21:02:34.872Z,1.60
2023-03-12T21:05:24.596Z,2.00
2023-03-12T21:08:11.925Z,2.13
2023-03-12T21:10:58.906Z,1.90
2023-03-12T21:13:46.106Z,2.03
2023-03-12T21:16:33.171Z,1.93
2023-03-12T21:19:20.253Z,2.23
2023-03-12T21:22:07.372Z,1.83
2023-03-12T21:24:54.367Z,1.97
2023-03-12T21:27:50.422Z,2.00
2023-03-12T21:30:38.219Z,1.67
2023-03-12T21:33:25.300Z,1.80
2023-03-12T21:36:14.312Z,1.73
2023-03-12T21:39:01.820Z,1.53
2023-03-12T21:41:48.846Z,2.07
2023-03-12T21:44:37.123Z,1.60
2023-03-12T21:47:24.111Z,1.43
2023-03-12T21:50:11.715Z,1.80
2023-03-12T21:52:58.654Z,1.63
2023-03-12T21:55:54.594Z,1.93
2023-03-12T21:58:41.685Z,1.80
2023-03-12T22:01:28.725Z,1.70
2023-03-12T22:04:15.758Z,1.90
2023-03-12T22:07:02.774Z,1.70
2023-03-12T22:09:49.667Z,1.50
2023-03-12T22:12:36.603Z,1.60
2023-03-12T22:15:23.852Z,1.73
2023-03-12T22:18:10.842Z,1.60
2023-03-12T22:21:01.210Z,1.50
2023-03-12T22:23:51.653Z,1.90
2023-03-12T22:26:38.575Z,1.63
2023-03-12T22:29:25.460Z,1.60
2023-03-12T22:32:12.374Z,1.73
2023-03-12T22:34:59.329Z,1.77
2023-03-12T22:37:46.456Z,1.60
2023-03-12T22:40:33.353Z,1.50
2023-03-12T22:43:20.231Z,1.60
2023-03-12T22:46:07.200Z,2.00
2023-03-12T22:48:57.308Z,1.90
2023-03-12T22:51:44.200Z,1.70
2023-03-12T22:54:31.109Z,2.10
2023-03-12T22:57:17.994Z,1.70
2023-03-12T23:00:13.027Z,1.43
2023-03-12T23:02:59.954Z,1.67
2023-03-12T23:05:46.962Z,1.57
2023-03-12T23:08:33.855Z,1.40
2023-03-12T23:11:21.025Z,1.90
2023-03-12T23:14:08.373Z,1.60
2023-03-12T23:16:57.390Z,1.50
2023-03-12T23:19:44.355Z,1.70
2023-03-12T23:22:32.641Z,1.70
2023-03-12T23:25:19.562Z,1.60
2023-03-12T23:28:06.503Z,1.70
2023-03-12T23:31:01.845Z,1.70
2023-03-12T23:33:48.918Z,1.47
2023-03-12T23:36:35.934Z,1.60
2023-03-12T23:39:22.855Z,1.80
2023-03-12T23:42:09.758Z,1.50
2023-03-12T23:44:56.712Z,1.57
2023-03-12T23:47:43.639Z,1.60
2023-03-12T23:50:33.365Z,1.30
2023-03-12T23:53:21.124Z,1.50
2023-03-12T23:56:11.409Z,1.60
2023-03-12T23:58:58.400Z,1.50
